Don's Testing Zone


Current Conditions
weather data
source:

National Weather Service
Mostly Clear Little Rock, AR
Mostly Clear, 90°F
Wednesday, July 26, 2017 10:53 AM CDT
Temperature: 90°F/32°C
Humidity: 63%
Barometer: 30.10in/1019.3mb Barometer Steady
Wind: W at 8mph/13kmh
View other cities:
Searcy | Little Rock | Hot Springs | Russellville | More...
Astronomical Conditions (Clear Sky Clock)
Searcy Clear Sky Clock
    

Radar Images

NWS
    Wx Underground

NWS METAR weather data

ADDS - METARS form results





Aviation Digital Data Service (ADDS) Output produced by METARs form (1626 UTC 26 July 2017) found at http://www.aviationweather.gov/adds/metars/ 

KLIT 261553Z 24007KT 10SM FEW025 32/24 A3010 RMK AO2 SLP193 T03170239

KLIT 261453Z 24007KT 10SM CLR 30/24 A3010 RMK AO2 SLP192 T03000244 51002

KLIT 261353Z 23006KT 10SM CLR 28/23 A3010 RMK AO2 SLP192 T02830233

KLIT 261253Z 23006KT 10SM FEW250 26/23 A3010 RMK AO2 SLP193 T02610233

KLIT 261153Z 24003KT 10SM FEW250 24/23 A3009 RMK AO2 SLP189 T02440228 1027820244 52007

KLIT 261053Z 24003KT 10SM CLR 24/23 A3009 RMK AO2 SLP188 T02440233

KLIT 260953Z 25006KT 10SM CLR 26/23 A3007 RMK AO2 SLP183 T02560228

KLIT 260853Z 25004KT 10SM CLR 26/23 A3007 RMK AO2 SLP182 T02560228 58000

KLIT 260753Z 23006KT 10SM CLR 27/23 A3007 RMK AO2 SLP182 T02670233

KLIT 260653Z 23007KT 10SM CLR 27/24 A3007 RMK AO2 SLP182 T02720239

KLIT 260553Z 22008KT 10SM CLR 28/24 A3007 RMK AO2 SLP183 T02780244 10328 20278403440244 53012

KLIT 260453Z 21007KT 10SM CLR 28/24 A3006 RMK AO2 SLP177 T02830244

KLIT 260353Z 22005KT 10SM CLR 28/25 A3005 RMK AO2 SLP175 T02780250

KLIT 260253Z 22008KT 10SM FEW120 29/25 A3004 RMK AO2 SLP171 T02940250 50004

KLIT 260153Z 19007KT 10SM SCT120 SCT250 29/26 A3004 RMK AO2 SLP171 T02940256

KLIT 260053Z 17006KT 10SM FEW055 FEW120 SCT250 31/25 A3003 RMK AO2 SLP169T03110250

KLIT 252353Z 16006KT 10SM FEW055 SCT250 33/24 A3003 RMK AO2 SLP167 T0328024410344 20328 56004

KLIT 252253Z 17007KT 10SM SCT055 SCT250 34/24 A3003 RMK AO2 SLP169 T03390239

KLIT 252153Z 15010KT 10SM SCT050 34/24 A3003 RMK AO2 SLP168 CB TOP DSNT NT03440244

KLIT 252053Z 20006KT 10SM SCT050 SCT250 34/23 A3004 RMK AO2 SLP171 T0344023358012

KLIT 251953Z 21007KT 10SM SCT045 SCT250 34/24 A3005 RMK AO2 SLP175 T03390239

KLIT 251853Z 17006KT 10SM SCT042 SCT250 34/24 A3006 RMK AO2 SLP180 T03390239

KLIT 251753Z 26006KT 10SM SCT040 33/24 A3007 RMK AO2 SLP183 T03330244 1033920244 58002

KLIT 251653Z VRB04KT 10SM SCT035 32/24 A3008 RMK AO2 SLP185 T03220244